createdAt,value
2018-03-03T00:00:56.105Z,-1.7
2018-03-03T00:01:55.999Z,-1.7
2018-03-03T00:02:55.914Z,-1.8
2018-03-03T00:03:56.193Z,-1.7
2018-03-03T00:04:56.064Z,-1.7
2018-03-03T00:05:55.942Z,-1.7
2018-03-03T00:06:55.846Z,-1.7
2018-03-03T00:07:55.748Z,-1.6
2018-03-03T00:08:55.642Z,-1.7
2018-03-03T00:09:55.539Z,-1.7
2018-03-03T00:10:55.422Z,-1.7
2018-03-03T00:11:55.326Z,-1.8
2018-03-03T00:12:55.251Z,-1.8
2018-03-03T00:13:55.532Z,-1.8
2018-03-03T00:14:55.424Z,-1.7
2018-03-03T00:15:55.317Z,-1.8
2018-03-03T00:16:55.219Z,-1.8
2018-03-03T00:17:55.105Z,-1.8
2018-03-03T00:18:55.030Z,-1.8
2018-03-03T00:19:54.926Z,-1.7
2018-03-03T00:20:54.818Z,-1.8
2018-03-03T00:21:54.713Z,-1.7
2018-03-03T00:22:54.596Z,-1.7
2018-03-03T00:23:54.878Z,-1.7
2018-03-03T00:24:54.745Z,-1.7
2018-03-03T00:25:54.632Z,-1.7
2018-03-03T00:26:54.519Z,-1.7
2018-03-03T00:27:54.415Z,-1.7
2018-03-03T00:28:54.327Z,-1.8
2018-03-03T00:29:54.218Z,-1.7
2018-03-03T00:30:54.109Z,-1.7
2018-03-03T00:31:54.010Z,-1.7
2018-03-03T00:32:53.884Z,-1.6
2018-03-03T00:33:54.161Z,-1.6
2018-03-03T00:34:54.055Z,-1.6
2018-03-03T00:35:53.939Z,-1.7
2018-03-03T00:36:53.813Z,-1.7
2018-03-03T00:37:53.705Z,-1.7
2018-03-03T00:38:53.595Z,-1.6
2018-03-03T00:39:53.507Z,-1.6
2018-03-03T00:40:53.410Z,-1.7
2018-03-03T00:41:53.291Z,-1.7
2018-03-03T00:42:53.188Z,-1.7
2018-03-03T00:43:53.458Z,-1.8
2018-03-03T00:44:53.369Z,-1.8
2018-03-03T00:45:53.313Z,-1.7
2018-03-03T00:46:53.196Z,-1.7
2018-03-03T00:47:53.081Z,-1.7
2018-03-03T00:48:52.958Z,-1.9
2018-03-03T00:49:52.837Z,-1.9
2018-03-03T00:50:52.735Z,-1.8
2018-03-03T00:51:52.631Z,-1.8
2018-03-03T00:52:52.508Z,-1.8
2018-03-03T00:53:52.785Z,-1.9
2018-03-03T00:54:52.687Z,-1.8
2018-03-03T00:55:52.597Z,-1.8
2018-03-03T00:56:52.494Z,-1.9
2018-03-03T00:57:52.424Z,-1.9
2018-03-03T00:58:52.368Z,-2
2018-03-03T00:59:52.255Z,-2
2018-03-03T01:00:52.227Z,-2
2018-03-03T01:01:52.116Z,-1.9
2018-03-03T01:02:52.002Z,-1.9
2018-03-03T01:03:52.310Z,-1.9
2018-03-03T01:04:52.208Z,-1.9
2018-03-03T01:05:52.112Z,-2
2018-03-03T01:06:52.015Z,-2
2018-03-03T01:07:51.903Z,-2
2018-03-03T01:08:51.832Z,-2.1
2018-03-03T01:09:51.713Z,-2.1
2018-03-03T01:10:51.599Z,-2.2
2018-03-03T01:11:51.502Z,-2.2
2018-03-03T01:12:51.379Z,-2.2
2018-03-03T01:13:51.643Z,-2.3
2018-03-03T01:14:51.528Z,-2.3
2018-03-03T01:15:51.418Z,-2.4
2018-03-03T01:16:51.306Z,-2.3
2018-03-03T01:17:51.233Z,-2.3
2018-03-03T01:18:51.130Z,-2.3
2018-03-03T01:19:51.007Z,-2.3
2018-03-03T01:20:50.898Z,-2.3
2018-03-03T01:21:50.798Z,-2.3
2018-03-03T01:22:50.690Z,-2.3
2018-03-03T01:23:51.273Z,-2.4
2018-03-03T01:24:51.145Z,-2.4
2018-03-03T01:25:51.014Z,-2.4
2018-03-03T01:26:50.900Z,-2.4
2018-03-03T01:27:50.786Z,-2.4
2018-03-03T01:28:50.699Z,-2.4
2018-03-03T01:29:50.585Z,-2.5
2018-03-03T01:30:50.478Z,-2.4
2018-03-03T01:31:50.440Z,-2.5
2018-03-03T01:32:50.335Z,-2.4
2018-03-03T01:33:50.871Z,-2.5
2018-03-03T01:34:50.812Z,-2.5
2018-03-03T01:35:50.714Z,-2.6
2018-03-03T01:36:50.613Z,-2.5
2018-03-03T01:37:50.505Z,-2.6
2018-03-03T01:38:50.416Z,-2.6
2018-03-03T01:39:50.286Z,-2.6
2018-03-03T01:40:50.157Z,-2.6
2018-03-03T01:41:50.047Z,-2.6
2018-03-03T01:42:49.941Z,-2.6
2018-03-03T01:43:50.218Z,-2.7
2018-03-03T01:44:50.410Z,-2.6
2018-03-03T01:45:50.293Z,-2.6
2018-03-03T01:46:50.198Z,-2.6
2018-03-03T01:47:50.075Z,-2.6
2018-03-03T01:48:49.965Z,-2.6
2018-03-03T01:49:49.860Z,-2.6
2018-03-03T01:50:49.776Z,-2.6
2018-03-03T01:51:49.681Z,-2.6
2018-03-03T01:52:49.566Z,-2.6
2018-03-03T01:53:49.895Z,-2.6
2018-03-03T01:54:49.782Z,-2.7
2018-03-03T01:55:49.689Z,-2.7
2018-03-03T01:56:49.639Z,-2.8
2018-03-03T01:57:49.543Z,-2.8
2018-03-03T01:58:49.421Z,-2.8
2018-03-03T01:59:49.299Z,-2.8
2018-03-03T02:00:49.217Z,-2.7
2018-03-03T02:01:49.095Z,-2.8
2018-03-03T02:02:48.971Z,-2.8
2018-03-03T02:03:49.219Z,-2.8
2018-03-03T02:04:49.111Z,-2.8
2018-03-03T02:05:49.040Z,-2.8
2018-03-03T02:06:48.924Z,-2.8
2018-03-03T02:07:48.800Z,-2.8
2018-03-03T02:08:48.680Z,-2.8
2018-03-03T02:09:48.563Z,-2.8
2018-03-03T02:10:48.434Z,-2.8
2018-03-03T02:11:48.331Z,-2.8
2018-03-03T02:12:48.215Z,-2.7
2018-03-03T02:13:48.477Z,-2.7
2018-03-03T02:14:48.364Z,-2.7
2018-03-03T02:15:48.248Z,-2.6
2018-03-03T02:16:48.142Z,-2.7
2018-03-03T02:17:48.043Z,-2.7
2018-03-03T02:18:47.924Z,-2.6
2018-03-03T02:19:47.816Z,-2.6
2018-03-03T02:20:47.694Z,-2.6
2018-03-03T02:21:47.623Z,-2.6
2018-03-03T02:22:47.509Z,-2.6
2018-03-03T02:23:47.756Z,-2.5
2018-03-03T02:24:47.649Z,-2.5
2018-03-03T02:25:47.517Z,-2.5
2018-03-03T02:26:47.385Z,-2.5
2018-03-03T02:27:47.269Z,-2.5
2018-03-03T02:28:47.146Z,-2.5
2018-03-03T02:29:47.046Z,-2.6
2018-03-03T02:30:46.935Z,-2.6
2018-03-03T02:31:46.849Z,-2.6
2018-03-03T02:32:46.764Z,-2.7
2018-03-03T02:33:47.065Z,-2.7
2018-03-03T02:34:46.945Z,-2.7
2018-03-03T02:35:46.850Z,-2.7
2018-03-03T02:36:46.761Z,-2.8
2018-03-03T02:37:46.688Z,-2.8
2018-03-03T02:38:46.584Z,-2.8
2018-03-03T02:39:46.470Z,-2.8
2018-03-03T02:40:46.357Z,-2.7
2018-03-03T02:41:46.277Z,-2.7
2018-03-03T02:42:46.195Z,-2.6
2018-03-03T02:43:46.509Z,-2.5
2018-03-03T02:44:46.376Z,-2.7
2018-03-03T02:45:46.274Z,-2.7
2018-03-03T02:46:46.168Z,-2.7
2018-03-03T02:47:46.061Z,-2.7
2018-03-03T02:48:45.980Z,-2.8
2018-03-03T02:49:45.864Z,-2.7
2018-03-03T02:50:45.764Z,-2.8
2018-03-03T02:51:45.666Z,-2.8
2018-03-03T02:52:45.564Z,-2.7
2018-03-03T02:53:45.881Z,-2.8
2018-03-03T02:54:45.775Z,-2.8
2018-03-03T02:55:45.649Z,-2.8
2018-03-03T02:56:45.559Z,-2.7
2018-03-03T02:57:45.456Z,-2.8
2018-03-03T02:58:45.358Z,-2.8
2018-03-03T02:59:45.272Z,-2.8
2018-03-03T03:00:45.174Z,-2.8
2018-03-03T03:01:45.080Z,-2.8
2018-03-03T03:02:44.982Z,-2.8
2018-03-03T03:03:45.264Z,-2.8
2018-03-03T03:04:45.208Z,-2.8
2018-03-03T03:05:45.092Z,-2.8
2018-03-03T03:06:45.010Z,-2.8
2018-03-03T03:07:44.908Z,-2.8
2018-03-03T03:08:44.787Z,-2.8
2018-03-03T03:09:44.672Z,-2.8
2018-03-03T03:10:44.574Z,-2.9
2018-03-03T03:11:44.459Z,-2.9
2018-03-03T03:12:44.346Z,-2.9
2018-03-03T03:13:44.618Z,-2.9
2018-03-03T03:14:44.515Z,-2.9
2018-03-03T03:15:44.449Z,-2.9
2018-03-03T03:16:44.321Z,-2.9
2018-03-03T03:17:44.246Z,-2.9
2018-03-03T03:18:44.125Z,-2.9
2018-03-03T03:19:44.010Z,-2.9
2018-03-03T03:20:43.903Z,-2.8
2018-03-03T03:21:43.809Z,-2.8
2018-03-03T03:22:43.693Z,-2.7
2018-03-03T03:23:43.961Z,-2.7
2018-03-03T03:24:43.849Z,-2.7
2018-03-03T03:25:43.732Z,-2.7
2018-03-03T03:26:43.656Z,-2.7
2018-03-03T03:27:43.553Z,-2.7
2018-03-03T03:28:43.431Z,-2.7
2018-03-03T03:29:43.322Z,-2.7
2018-03-03T03:30:43.228Z,-2.7
2018-03-03T03:31:43.220Z,-2.7
2018-03-03T03:32:43.106Z,-2.7
2018-03-03T03:33:43.387Z,-2.7
2018-03-03T03:34:43.271Z,-2.8
2018-03-03T03:35:43.159Z,-2.7
2018-03-03T03:36:43.064Z,-2.7
2018-03-03T03:37:42.974Z,-2.7
2018-03-03T03:38:42.864Z,-2.6
2018-03-03T03:39:42.778Z,-2.6
2018-03-03T03:40:42.653Z,-2.6
2018-03-03T03:41:42.535Z,-2.6
2018-03-03T03:42:42.445Z,-2.6
2018-03-03T03:43:42.710Z,-2.6
2018-03-03T03:44:42.613Z,-2.6
2018-03-03T03:45:42.505Z,-2.6
2018-03-03T03:46:42.393Z,-2.6
2018-03-03T03:47:42.264Z,-2.5
2018-03-03T03:48:42.173Z,-2.5
2018-03-03T03:49:42.052Z,-2.5
2018-03-03T03:50:41.932Z,-2.4
2018-03-03T03:51:41.812Z,-2.2
2018-03-03T03:52:41.698Z,-2.4
2018-03-03T03:53:41.971Z,-2.4
2018-03-03T03:54:41.856Z,-2.3
2018-03-03T03:55:41.734Z,-2.3
2018-03-03T03:56:41.608Z,-2.3
2018-03-03T03:57:41.497Z,-2.4
2018-03-03T03:58:41.662Z,-2.3
2018-03-03T03:59:41.556Z,-2.3
2018-03-03T04:00:41.435Z,-2.4
2018-03-03T04:01:41.310Z,-2.3
2018-03-03T04:02:41.201Z,-2.4
2018-03-03T04:03:41.449Z,-2.4
2018-03-03T04:04:41.327Z,-2.3
2018-03-03T04:05:41.209Z,-2.4
2018-03-03T04:06:41.102Z,-2.3
2018-03-03T04:07:40.966Z,-2.3
2018-03-03T04:08:40.836Z,-2.3
2018-03-03T04:09:40.731Z,-2.3
2018-03-03T04:10:40.621Z,-2.3
2018-03-03T04:11:40.493Z,-2.3
2018-03-03T04:12:40.369Z,-2.3
2018-03-03T04:13:40.621Z,-2.2
2018-03-03T04:14:40.496Z,-2.2
2018-03-03T04:15:40.400Z,-2.2
2018-03-03T04:16:40.287Z,-2.2
2018-03-03T04:17:40.168Z,-2.2
2018-03-03T04:18:40.053Z,-2.2
2018-03-03T04:19:39.937Z,-2.2
2018-03-03T04:20:39.830Z,-2.3
2018-03-03T04:21:39.756Z,-2.3
2018-03-03T04:22:39.638Z,-2.3
2018-03-03T04:23:39.894Z,-2.3
2018-03-03T04:24:39.791Z,-2.4
2018-03-03T04:25:39.670Z,-2.4
2018-03-03T04:26:39.571Z,-2.4
2018-03-03T04:27:39.442Z,-2.4
2018-03-03T04:28:39.322Z,-2.3
2018-03-03T04:29:39.198Z,-2.3
2018-03-03T04:30:39.145Z,-2.3
2018-03-03T04:31:39.110Z,-2.3
2018-03-03T04:32:38.980Z,-2.3
2018-03-03T04:33:39.268Z,-2.4
2018-03-03T04:34:39.157Z,-2.3
2018-03-03T04:35:39.040Z,-2.3
2018-03-03T04:36:38.905Z,-2.3
2018-03-03T04:37:38.797Z,-2.3
2018-03-03T04:38:38.691Z,-2.2
2018-03-03T04:39:38.586Z,-2.2
2018-03-03T04:40:38.459Z,-2.1
2018-03-03T04:41:38.337Z,-2.1
2018-03-03T04:42:38.208Z,-2
2018-03-03T04:43:38.473Z,-2.1
2018-03-03T04:44:38.348Z,-2
2018-03-03T04:45:38.236Z,-2
2018-03-03T04:46:38.130Z,-2
2018-03-03T04:47:38.014Z,-2.1
2018-03-03T04:48:37.918Z,-2
2018-03-03T04:49:37.803Z,-2.1
2018-03-03T04:50:37.691Z,-2.1
2018-03-03T04:51:37.598Z,-2.1
2018-03-03T04:52:37.493Z,-2.2
2018-03-03T04:53:38.016Z,-2.2
2018-03-03T04:54:37.900Z,-2.1
2018-03-03T04:55:37.782Z,-2.1
2018-03-03T04:56:37.664Z,-2.2
2018-03-03T04:57:37.545Z,-2.2
2018-03-03T04:58:37.472Z,-2.2
2018-03-03T04:59:37.358Z,-2.2
2018-03-03T05:00:37.242Z,-2.1
2018-03-03T05:01:37.116Z,-2.1
2018-03-03T05:02:36.990Z,-2.1
2018-03-03T05:03:37.224Z,-2.1
2018-03-03T05:04:37.122Z,-2.1
2018-03-03T05:05:36.997Z,-2.2
2018-03-03T05:06:36.875Z,-2.2
2018-03-03T05:07:36.768Z,-2.1
2018-03-03T05:08:36.643Z,-2.1
2018-03-03T05:09:36.545Z,-2.1
2018-03-03T05:10:36.441Z,-2.1
2018-03-03T05:11:36.322Z,-2
2018-03-03T05:12:36.209Z,-2
2018-03-03T05:13:36.514Z,-2
2018-03-03T05:14:36.439Z,-2
2018-03-03T05:15:36.322Z,-2
2018-03-03T05:16:36.202Z,-2
2018-03-03T05:17:36.097Z,-2
2018-03-03T05:18:35.971Z,-2
2018-03-03T05:19:35.876Z,-2
2018-03-03T05:20:35.783Z,-1.9
2018-03-03T05:21:35.660Z,-1.8
2018-03-03T05:22:35.538Z,-1.8
2018-03-03T05:23:35.860Z,-1.9
2018-03-03T05:24:35.742Z,-1.9
2018-03-03T05:25:35.886Z,-1.8
2018-03-03T05:26:35.775Z,-1.8
2018-03-03T05:27:35.661Z,-1.8
2018-03-03T05:28:35.570Z,-1.8
2018-03-03T05:29:35.450Z,-1.8
2018-03-03T05:30:35.345Z,-1.9
2018-03-03T05:31:35.237Z,-1.9
2018-03-03T05:32:35.130Z,-1.9
2018-03-03T05:33:35.392Z,-1.9
2018-03-03T05:34:35.267Z,-1.9
2018-03-03T05:35:35.157Z,-1.9
2018-03-03T05:36:35.081Z,-1.9
2018-03-03T05:37:34.983Z,-1.8
2018-03-03T05:38:34.868Z,-1.8
2018-03-03T05:39:34.745Z,-1.9
2018-03-03T05:40:34.636Z,-1.9
2018-03-03T05:41:34.799Z,-1.9
2018-03-03T05:42:34.698Z,-1.9
2018-03-03T05:43:34.954Z,-1.9
2018-03-03T05:44:34.845Z,-1.8
2018-03-03T05:45:34.732Z,-1.9
2018-03-03T05:46:34.616Z,-1.9
2018-03-03T05:47:34.516Z,-1.9
2018-03-03T05:48:34.407Z,-1.8
2018-03-03T05:49:34.344Z,-1.9
2018-03-03T05:50:34.217Z,-1.9
2018-03-03T05:51:34.099Z,-1.9
2018-03-03T05:52:33.989Z,-2
2018-03-03T05:53:34.254Z,-2
2018-03-03T05:54:34.145Z,-1.9
2018-03-03T05:55:34.030Z,-1.9
2018-03-03T05:56:33.925Z,-1.9
2018-03-03T05:57:33.843Z,-2.1
2018-03-03T05:58:33.732Z,-2
2018-03-03T05:59:33.609Z,-1.9
2018-03-03T06:00:33.504Z,-1.9
2018-03-03T06:01:33.393Z,-1.9
2018-03-03T06:02:33.565Z,-1.8
2018-03-03T06:03:33.851Z,-1.8
2018-03-03T06:04:33.736Z,-1.8
2018-03-03T06:05:33.615Z,-1.8
2018-03-03T06:06:33.509Z,-1.8
2018-03-03T06:07:33.399Z,-1.8
2018-03-03T06:08:33.298Z,-1.9
2018-03-03T06:09:33.173Z,-1.8
2018-03-03T06:10:33.055Z,-1.8
2018-03-03T06:11:32.950Z,-1.8
2018-03-03T06:12:32.852Z,-1.9
2018-03-03T06:13:33.184Z,-1.9
2018-03-03T06:14:33.116Z,-1.9
2018-03-03T06:15:33.013Z,-2
2018-03-03T06:16:32.889Z,-2
2018-03-03T06:17:32.793Z,-1.9
2018-03-03T06:18:32.714Z,-1.8
2018-03-03T06:19:32.609Z,-1.7
2018-03-03T06:20:32.495Z,-1.7
2018-03-03T06:21:32.389Z,-1.7
2018-03-03T06:22:32.295Z,-1.6
2018-03-03T06:23:32.613Z,-1.8
2018-03-03T06:24:32.501Z,-1.8
2018-03-03T06:25:32.418Z,-1.7
2018-03-03T06:26:32.296Z,-1.8
2018-03-03T06:27:32.189Z,-1.9
2018-03-03T06:28:32.089Z,-1.7
2018-03-03T06:29:31.994Z,-1.9
2018-03-03T06:30:31.994Z,-1.9
2018-03-03T06:31:31.980Z,-1.9
2018-03-03T06:32:31.869Z,-1.9
2018-03-03T06:33:32.135Z,-1.9
2018-03-03T06:34:32.067Z,-1.9
2018-03-03T06:35:31.984Z,-2
2018-03-03T06:36:31.869Z,-2
2018-03-03T06:37:31.820Z,-1.9
2018-03-03T06:38:31.860Z,-1.9
2018-03-03T06:39:31.755Z,-1.8
2018-03-03T06:40:31.642Z,-1.8
2018-03-03T06:41:31.572Z,-1.8
2018-03-03T06:42:31.494Z,-1.7
2018-03-03T06:43:31.794Z,-1.6
2018-03-03T06:44:31.720Z,-1.5
2018-03-03T06:45:31.640Z,-1.7
2018-03-03T06:46:31.538Z,-1.8
2018-03-03T06:47:31.428Z,-1.6
2018-03-03T06:48:31.308Z,-1.6
2018-03-03T06:49:31.205Z,-1.6
2018-03-03T06:50:31.167Z,-1.5
2018-03-03T06:51:31.057Z,-1.5
2018-03-03T06:52:30.942Z,-1.7
2018-03-03T06:53:31.212Z,-1.7
2018-03-03T06:54:31.088Z,-1.7
2018-03-03T06:55:30.957Z,-1.5
2018-03-03T06:56:30.862Z,-1.4
2018-03-03T06:57:30.736Z,-1.4
2018-03-03T06:58:30.619Z,-1.4
2018-03-03T06:59:30.519Z,-1.4
2018-03-03T07:00:30.408Z,-1.3
2018-03-03T07:01:30.311Z,-1.2
2018-03-03T07:02:30.196Z,-1.1
2018-03-03T07:03:30.443Z,-1
2018-03-03T07:04:30.339Z,-1
2018-03-03T07:05:30.241Z,-1.1
2018-03-03T07:06:30.168Z,-1.2
2018-03-03T07:07:30.045Z,-1.3
2018-03-03T07:08:29.936Z,-1.2
2018-03-03T07:09:29.839Z,-1.2
2018-03-03T07:10:29.736Z,-1
2018-03-03T07:11:29.674Z,-0.9
2018-03-03T07:12:29.584Z,-0.8
2018-03-03T07:13:29.836Z,-0.8
2018-03-03T07:14:29.723Z,-0.6
2018-03-03T07:15:29.634Z,-0.4
2018-03-03T07:16:29.513Z,-0.3
2018-03-03T07:17:29.385Z,-0.5
2018-03-03T07:18:29.295Z,-0.3
2018-03-03T07:19:29.179Z,-0.1
2018-03-03T07:20:29.113Z,0.1
2018-03-03T07:21:28.992Z,0.2
2018-03-03T07:22:29.123Z,0.2
2018-03-03T07:23:29.761Z,0
2018-03-03T07:24:29.675Z,0.1
2018-03-03T07:25:29.560Z,0.1
2018-03-03T07:26:29.569Z,0.2
2018-03-03T07:27:29.459Z,0.2
2018-03-03T07:28:29.556Z,0.3
2018-03-03T07:29:29.451Z,0
2018-03-03T07:30:29.326Z,-0.1
2018-03-03T07:31:29.221Z,-0.1
2018-03-03T07:32:29.101Z,0
2018-03-03T07:33:29.380Z,0.1
2018-03-03T07:34:29.298Z,0.2
2018-03-03T07:35:29.227Z,0.3
2018-03-03T07:36:29.337Z,0.1
2018-03-03T07:37:29.272Z,0.2
2018-03-03T07:38:29.165Z,0.3
2018-03-03T07:39:29.077Z,0.4
2018-03-03T07:40:28.951Z,0.5
2018-03-03T07:41:28.826Z,0.4
2018-03-03T07:42:28.832Z,0.5
2018-03-03T07:43:29.296Z,0.6
2018-03-03T07:44:29.190Z,0.6
2018-03-03T07:45:29.068Z,0.6
2018-03-03T07:46:28.966Z,0.6
2018-03-03T07:47:28.846Z,0.5
2018-03-03T07:48:28.850Z,0.7
2018-03-03T07:49:28.804Z,0.8
2018-03-03T07:50:28.703Z,0.7
2018-03-03T07:51:28.594Z,0.9
2018-03-03T07:52:28.478Z,1
2018-03-03T07:53:28.795Z,1
2018-03-03T07:54:28.688Z,1
2018-03-03T07:55:28.573Z,1
2018-03-03T07:56:28.453Z,1.2
2018-03-03T07:57:28.394Z,1.1
2018-03-03T07:58:28.273Z,1.1
2018-03-03T07:59:28.151Z,1.2
2018-03-03T08:00:28.070Z,1
2018-03-03T08:01:27.952Z,1.1
2018-03-03T08:02:27.837Z,1.2
2018-03-03T08:03:28.211Z,1.5
2018-03-03T08:04:28.099Z,1.6
2018-03-03T08:05:27.997Z,1.6
2018-03-03T08:06:27.955Z,1.7
2018-03-03T08:07:27.840Z,1.6
2018-03-03T08:08:27.727Z,1.7
2018-03-03T08:09:27.629Z,1.8
2018-03-03T08:10:27.540Z,2
2018-03-03T08:11:27.458Z,1.7
2018-03-03T08:12:27.330Z,1.5
2018-03-03T08:13:27.614Z,1.4
2018-03-03T08:14:27.506Z,1.5
2018-03-03T08:15:27.404Z,1.8
2018-03-03T08:16:27.290Z,2.1
2018-03-03T08:17:27.206Z,2.2
2018-03-03T08:18:27.100Z,2.4
2018-03-03T08:19:27.024Z,2.5
2018-03-03T08:20:26.905Z,2.8
2018-03-03T08:21:26.809Z,3.2
2018-03-03T08:22:26.707Z,3.4
2018-03-03T08:23:27.000Z,3.6
2018-03-03T08:24:26.911Z,3.4
2018-03-03T08:25:26.860Z,3.4
2018-03-03T08:26:26.734Z,3.8
2018-03-03T08:27:26.639Z,3.8
2018-03-03T08:28:26.531Z,3.4
2018-03-03T08:29:26.434Z,3.3
2018-03-03T08:30:26.325Z,3.2
2018-03-03T08:31:26.206Z,3.5
2018-03-03T08:32:26.090Z,3.5
2018-03-03T08:33:26.383Z,3.5
2018-03-03T08:34:26.265Z,3.6
2018-03-03T08:35:26.166Z,3.7
2018-03-03T08:36:26.067Z,3.5
2018-03-03T08:37:25.964Z,3.7
2018-03-03T08:38:25.882Z,3.8
2018-03-03T08:39:25.795Z,4.5
2018-03-03T08:40:25.691Z,5.3
2018-03-03T08:41:25.580Z,5.4
2018-03-03T08:42:25.470Z,5.4
2018-03-03T08:43:25.726Z,5.2
2018-03-03T08:44:25.616Z,5
2018-03-03T08:45:25.499Z,4.1
2018-03-03T08:46:25.390Z,4.2
2018-03-03T08:47:25.279Z,4.2
2018-03-03T08:48:25.181Z,4.4
2018-03-03T08:49:25.087Z,4.3
2018-03-03T08:50:25.020Z,4.3
2018-03-03T08:51:25.220Z,4.4
2018-03-03T08:52:25.443Z,4.5
2018-03-03T08:53:25.697Z,4.4
2018-03-03T08:54:25.588Z,4.1
2018-03-03T08:55:25.483Z,4
2018-03-03T08:56:25.380Z,4
2018-03-03T08:57:25.259Z,3.9
2018-03-03T08:58:25.159Z,3.8
2018-03-03T08:59:25.100Z,3.5
2018-03-03T09:00:24.990Z,3.5
2018-03-03T09:01:24.879Z,3.4
2018-03-03T09:02:24.775Z,3.1
2018-03-03T09:03:25.120Z,3.3
2018-03-03T09:04:25.138Z,3.4
2018-03-03T09:05:25.187Z,3.5
2018-03-03T09:06:25.079Z,3.3
2018-03-03T09:07:24.966Z,3.4
2018-03-03T09:08:24.853Z,3.4
2018-03-03T09:09:24.743Z,3.2
2018-03-03T09:10:24.677Z,3.5
2018-03-03T09:11:24.584Z,3.8
2018-03-03T09:12:24.481Z,4
2018-03-03T09:13:24.809Z,4.3
2018-03-03T09:14:24.696Z,4.4
2018-03-03T09:15:24.684Z,4.4
2018-03-03T09:16:24.693Z,4.7
2018-03-03T09:17:24.648Z,5.7
2018-03-03T09:18:24.535Z,6.6
2018-03-03T09:19:24.433Z,7.2
2018-03-03T09:20:24.342Z,6.9
2018-03-03T09:21:24.248Z,7
2018-03-03T09:22:24.147Z,7.2
2018-03-03T09:23:24.414Z,7.5
2018-03-03T09:24:24.343Z,8.4
2018-03-03T09:25:24.239Z,8.9
2018-03-03T09:26:24.158Z,9
2018-03-03T09:27:24.050Z,8.5
2018-03-03T09:28:23.956Z,8.2
2018-03-03T09:29:23.855Z,7.7
2018-03-03T09:30:23.762Z,7.6
2018-03-03T09:31:23.701Z,7.4
2018-03-03T09:32:23.858Z,7.3
2018-03-03T09:33:24.143Z,7.6
2018-03-03T09:34:24.045Z,7.8
2018-03-03T09:35:23.947Z,7.9
2018-03-03T09:36:23.830Z,7.3
2018-03-03T09:37:24.774Z,7.3
2018-03-03T09:38:24.675Z,8
2018-03-03T09:39:24.571Z,8.2
2018-03-03T09:40:24.470Z,8.8
2018-03-03T09:41:24.370Z,9.1
2018-03-03T09:42:24.309Z,9.6
2018-03-03T09:43:24.593Z,9.7
2018-03-03T09:44:24.488Z,9.9
2018-03-03T09:45:24.468Z,10.4
2018-03-03T09:46:24.406Z,10.4
2018-03-03T09:47:24.334Z,10.4
2018-03-03T09:48:24.261Z,10.9
2018-03-03T09:49:24.162Z,11.3
2018-03-03T09:50:30.933Z,11
2018-03-03T09:51:31.051Z,10.6
2018-03-03T09:52:31.048Z,10.3
2018-03-03T09:53:31.584Z,12.4
